createdAt,value
2023-07-16T00:02:01.187Z,100743.90
2023-07-16T00:05:08.445Z,100747.41
2023-07-16T00:08:07.974Z,100751.66
2023-07-16T00:11:14.013Z,100743.55
2023-07-16T00:14:20.487Z,100744.51
2023-07-16T00:17:27.610Z,100747.70
2023-07-16T00:20:33.957Z,100748.14
2023-07-16T00:23:39.495Z,100749.95
2023-07-16T00:26:45.850Z,100751.77
2023-07-16T00:29:51.922Z,100754.44
2023-07-16T00:32:58.115Z,100755.17
2023-07-16T00:36:05.776Z,100751.02
2023-07-16T00:39:11.658Z,100746.77
2023-07-16T00:42:17.898Z,100755.47
2023-07-16T00:45:26.310Z,100754.17
2023-07-16T00:48:32.685Z,100741.06
2023-07-16T00:51:40.072Z,100751.70
2023-07-16T00:54:46.360Z,100748.18
2023-07-16T00:57:54.863Z,100747.12
2023-07-16T01:01:01.449Z,100757.97
2023-07-16T01:04:07.599Z,100750.81
2023-07-16T01:07:15.504Z,100753.35
2023-07-16T01:10:22.382Z,100756.09
2023-07-16T01:13:28.033Z,100754.59
2023-07-16T01:16:38.752Z,100756.81
2023-07-16T01:19:44.860Z,100760.52
2023-07-16T01:22:58.703Z,100757.93
2023-07-16T01:26:24.527Z,100759.94
2023-07-16T01:29:46.779Z,100769.30
2023-07-16T01:32:54.125Z,100766.30
2023-07-16T01:36:02.082Z,100774.66
2023-07-16T01:39:08.955Z,100773.38
2023-07-16T01:42:16.960Z,100781.74
2023-07-16T01:45:24.463Z,100777.91
2023-07-16T01:48:49.758Z,100788.19
2023-07-16T01:51:56.272Z,100781.66
2023-07-16T01:55:02.834Z,100779.89
2023-07-16T01:58:10.956Z,100775.84
2023-07-16T02:01:18.136Z,100781.58
2023-07-16T02:04:24.171Z,100780.20
2023-07-16T02:07:32.929Z,100779.47
2023-07-16T02:10:39.585Z,100788.19
2023-07-16T02:13:46.055Z,100787.35
2023-07-16T02:16:53.232Z,100790.73
2023-07-16T02:19:59.527Z,100787.25
2023-07-16T02:23:05.081Z,100793.23
2023-07-16T02:26:10.749Z,100798.49
2023-07-16T02:29:16.769Z,100801.85
2023-07-16T02:32:23.583Z,100796.36
2023-07-16T02:35:31.653Z,100792.11
2023-07-16T02:38:39.662Z,100798.09
2023-07-16T02:41:45.398Z,100794.05
2023-07-16T02:44:52.638Z,100800.03
2023-07-16T02:47:59.179Z,100800.27
2023-07-16T02:51:05.936Z,100803.28
2023-07-16T02:54:12.511Z,100804.03
2023-07-16T02:57:19.597Z,100799.58
2023-07-16T03:00:25.773Z,100802.92
2023-07-16T03:03:34.882Z,100802.09
2023-07-16T03:06:38.002Z,100804.67
2023-07-16T03:09:44.553Z,100801.38
2023-07-16T03:12:50.923Z,100806.93
2023-07-16T03:15:57.313Z,100811.62
2023-07-16T03:19:04.323Z,100811.64
2023-07-16T03:22:10.671Z,100814.33
2023-07-16T03:25:17.827Z,100819.91
2023-07-16T03:28:23.507Z,100821.19
2023-07-16T03:31:30.429Z,100817.26
2023-07-16T03:34:36.960Z,100825.89
2023-07-16T03:37:43.525Z,100823.34
2023-07-16T03:40:50.713Z,100822.19
2023-07-16T03:43:58.136Z,100825.80
2023-07-16T03:47:05.509Z,100829.13
2023-07-16T03:50:11.711Z,100824.11
2023-07-16T03:53:19.076Z,100823.25
2023-07-16T03:56:25.726Z,100826.67
2023-07-16T03:59:31.840Z,100826.55
2023-07-16T04:02:39.606Z,100824.86
2023-07-16T04:05:48.122Z,100831.79
2023-07-16T04:08:54.904Z,100829.41
2023-07-16T04:12:03.639Z,100829.56
2023-07-16T04:15:13.017Z,100828.69
2023-07-16T04:18:18.411Z,100835.70
2023-07-16T04:21:23.208Z,100841.55
2023-07-16T04:24:29.441Z,100833.21
2023-07-16T04:27:36.364Z,100842.47
2023-07-16T04:30:45.424Z,100836.04
2023-07-16T04:33:51.578Z,100843.30
2023-07-16T04:36:59.338Z,100841.67
2023-07-16T04:40:05.586Z,100841.42
2023-07-16T04:43:12.565Z,100857.91
2023-07-16T04:46:20.322Z,100854.03
2023-07-16T04:49:26.597Z,100851.34
2023-07-16T04:52:33.567Z,100853.11
2023-07-16T04:55:40.498Z,100854.55
2023-07-16T04:58:47.452Z,100857.40
2023-07-16T05:01:53.631Z,100855.11
2023-07-16T05:04:58.844Z,100862.84
2023-07-16T05:08:04.105Z,100862.20
2023-07-16T05:11:11.079Z,100867.16
2023-07-16T05:14:15.867Z,100868.05
2023-07-16T05:17:20.405Z,100879.00
2023-07-16T05:20:27.098Z,100875.42
2023-07-16T05:23:34.892Z,100878.78
2023-07-16T05:26:40.589Z,100869.60
2023-07-16T05:29:46.929Z,100873.82
2023-07-16T05:32:53.833Z,100865.79
2023-07-16T05:36:03.945Z,100873.08
2023-07-16T05:39:10.456Z,100877.03
2023-07-16T05:42:17.718Z,100872.66
2023-07-16T05:45:24.626Z,100881.63
2023-07-16T05:48:31.446Z,100877.25
2023-07-16T05:51:37.735Z,100880.89
2023-07-16T05:54:44.552Z,100882.27
2023-07-16T05:57:51.514Z,100882.75
2023-07-16T06:00:58.280Z,100879.41
2023-07-16T06:04:05.918Z,100882.47
2023-07-16T06:07:13.177Z,100881.67
2023-07-16T06:10:20.878Z,100887.55
2023-07-16T06:13:27.254Z,100888.41
2023-07-16T06:16:34.418Z,100886.44
2023-07-16T06:19:41.323Z,100892.22
2023-07-16T06:22:47.832Z,100881.83
2023-07-16T06:25:56.540Z,100883.50
2023-07-16T06:29:02.664Z,100883.75
2023-07-16T06:32:13.917Z,100893.24
2023-07-16T06:35:20.745Z,100884.49
2023-07-16T06:38:29.653Z,100892.22
2023-07-16T06:41:34.499Z,100893.53
2023-07-16T06:44:41.605Z,100886.36
2023-07-16T06:47:47.527Z,100899.67
2023-07-16T06:50:55.540Z,100884.44
2023-07-16T06:54:00.850Z,100890.73
2023-07-16T06:57:06.539Z,100891.19
2023-07-16T07:00:12.716Z,100896.33
2023-07-16T07:03:19.768Z,100898.37
2023-07-16T07:06:26.461Z,100904.17
2023-07-16T07:09:33.778Z,100909.06
2023-07-16T07:12:43.604Z,100892.42
2023-07-16T07:15:50.967Z,100899.81
2023-07-16T07:18:57.674Z,100891.05
2023-07-16T07:22:06.497Z,100901.52
2023-07-16T07:25:12.757Z,100896.66
2023-07-16T07:28:20.160Z,100903.50
2023-07-16T07:31:27.041Z,100893.83
2023-07-16T07:34:36.510Z,100902.30
2023-07-16T07:37:42.739Z,100895.95
2023-07-16T07:40:49.724Z,100894.09
2023-07-16T07:43:57.120Z,100893.88
2023-07-16T07:47:03.974Z,100893.98
2023-07-16T07:50:09.425Z,100891.87
2023-07-16T07:53:15.107Z,100897.64
2023-07-16T07:56:21.802Z,100892.97
2023-07-16T07:59:27.314Z,100889.67
2023-07-16T08:02:34.118Z,100887.86
2023-07-16T08:05:41.487Z,100881.55
2023-07-16T08:08:48.957Z,100873.25
2023-07-16T08:11:54.951Z,100871.69
2023-07-16T08:15:04.002Z,100877.98
2023-07-16T08:18:11.945Z,100883.70
2023-07-16T08:21:18.448Z,100869.80
2023-07-16T08:24:25.111Z,100875.23
2023-07-16T08:27:30.631Z,100873.78
2023-07-16T08:30:36.229Z,100863.41
2023-07-16T08:33:43.748Z,100858.00
2023-07-16T08:36:52.463Z,100857.30
2023-07-16T08:39:59.444Z,100858.55
2023-07-16T08:43:06.732Z,100853.55
2023-07-16T08:46:14.039Z,100851.94
2023-07-16T08:49:21.087Z,100854.86
2023-07-16T08:52:26.944Z,100843.19
2023-07-16T08:55:34.038Z,100852.36
2023-07-16T08:58:41.849Z,100845.64
2023-07-16T09:01:48.463Z,100846.25
2023-07-16T09:04:57.067Z,100859.00
2023-07-16T09:08:03.704Z,100853.78
2023-07-16T09:11:12.028Z,100849.07
2023-07-16T09:14:19.341Z,100844.98
2023-07-16T09:17:25.970Z,100850.78
2023-07-16T09:20:33.905Z,100844.16
2023-07-16T09:23:41.256Z,100842.71
2023-07-16T09:26:50.171Z,100846.17
2023-07-16T09:29:58.010Z,100848.57
2023-07-16T09:33:05.207Z,100849.47
2023-07-16T09:36:11.064Z,100840.84
2023-07-16T09:39:16.697Z,100842.06
2023-07-16T09:42:22.589Z,100841.85
2023-07-16T09:45:35.032Z,100840.78
2023-07-16T09:48:41.262Z,100847.63
2023-07-16T09:51:48.230Z,100838.98
2023-07-16T09:54:54.353Z,100837.80
2023-07-16T09:58:00.858Z,100838.88
2023-07-16T10:01:08.865Z,100837.70
2023-07-16T10:04:14.884Z,100831.86
2023-07-16T10:07:22.947Z,100825.22
2023-07-16T10:10:29.917Z,100820.84
2023-07-16T10:13:37.042Z,100822.56
2023-07-16T10:16:46.153Z,100828.49
2023-07-16T10:20:21.604Z,100823.19
2023-07-16T10:23:31.457Z,100823.58
2023-07-16T10:26:43.649Z,100823.66
2023-07-16T10:29:48.864Z,100825.99
2023-07-16T10:32:54.111Z,100823.25
2023-07-16T10:36:02.865Z,100821.88
2023-07-16T10:39:08.519Z,100825.84
2023-07-16T10:42:14.623Z,100823.37
2023-07-16T10:45:21.432Z,100813.82
2023-07-16T10:48:26.524Z,100821.23
2023-07-16T10:51:31.935Z,100821.52
2023-07-16T10:54:38.114Z,100820.41
2023-07-16T10:57:46.209Z,100817.59
2023-07-16T11:00:59.620Z,100813.94
2023-07-16T11:04:06.629Z,100818.73
2023-07-16T11:07:12.569Z,100824.36
2023-07-16T11:10:18.251Z,100821.87
2023-07-16T11:13:25.124Z,100820.98
2023-07-16T11:16:33.883Z,100815.39
2023-07-16T11:19:40.853Z,100818.78
2023-07-16T11:22:46.229Z,100815.73
2023-07-16T11:25:52.956Z,100829.23
2023-07-16T11:28:58.807Z,100821.62
2023-07-16T11:32:08.317Z,100832.33
2023-07-16T11:35:16.151Z,100823.91
2023-07-16T11:38:21.535Z,100816.86
2023-07-16T11:41:29.135Z,100815.16
2023-07-16T11:44:35.564Z,100820.55
2023-07-16T11:47:43.662Z,100818.02
2023-07-16T11:50:43.497Z,100823.37
2023-07-16T11:53:42.891Z,100831.51
2023-07-16T11:56:50.087Z,100822.51
2023-07-16T11:59:56.153Z,100825.31
2023-07-16T12:03:03.719Z,100816.29
2023-07-16T12:06:10.226Z,100814.32
2023-07-16T12:09:17.423Z,100812.08
2023-07-16T12:12:24.323Z,100810.66
2023-07-16T12:15:29.388Z,100812.36
2023-07-16T12:18:35.746Z,100807.02
2023-07-16T12:21:40.836Z,100806.16
2023-07-16T12:24:48.087Z,100817.73
2023-07-16T12:27:56.321Z,100809.27
2023-07-16T12:31:02.168Z,100813.48
2023-07-16T12:34:11.727Z,100814.88
2023-07-16T12:37:18.240Z,100807.28
2023-07-16T12:40:24.914Z,100808.67
2023-07-16T12:43:34.090Z,100812.00
2023-07-16T12:46:39.317Z,100801.86
2023-07-16T12:49:45.900Z,100808.63
2023-07-16T12:52:53.213Z,100808.12
2023-07-16T12:56:00.110Z,100800.53
2023-07-16T12:59:06.169Z,100809.27
2023-07-16T13:02:11.920Z,100798.02
2023-07-16T13:05:20.131Z,100796.30
2023-07-16T13:08:27.832Z,100801.95
2023-07-16T13:11:33.746Z,100804.48
2023-07-16T13:14:40.261Z,100796.87
2023-07-16T13:17:46.322Z,100792.63
2023-07-16T13:20:52.657Z,100799.41
2023-07-16T13:24:00.849Z,100801.41
2023-07-16T13:27:08.611Z,100800.26
2023-07-16T13:30:14.851Z,100800.26
2023-07-16T13:33:20.311Z,100797.69
2023-07-16T13:36:28.403Z,100791.52
2023-07-16T13:39:36.435Z,100788.41
2023-07-16T13:42:44.052Z,100792.35
2023-07-16T13:45:50.755Z,100798.53
2023-07-16T13:48:59.469Z,100790.09
2023-07-16T13:52:05.932Z,100782.44
2023-07-16T13:55:13.272Z,100791.17
2023-07-16T13:58:20.209Z,100783.88
2023-07-16T14:01:27.819Z,100779.92
2023-07-16T14:04:34.170Z,100777.44
2023-07-16T14:07:41.343Z,100769.23
2023-07-16T14:10:47.880Z,100768.67
2023-07-16T14:13:57.784Z,100774.27
2023-07-16T14:17:04.558Z,100773.98
2023-07-16T14:20:12.062Z,100771.72
2023-07-16T14:23:19.026Z,100778.25
2023-07-16T14:26:25.055Z,100782.50
2023-07-16T14:29:32.377Z,100779.13
2023-07-16T14:32:39.312Z,100775.75
2023-07-16T14:35:48.997Z,100776.02
2023-07-16T14:38:49.447Z,100788.72
2023-07-16T14:41:56.148Z,100781.96
2023-07-16T14:45:02.279Z,100771.54
2023-07-16T14:48:09.781Z,100776.30
2023-07-16T14:51:16.778Z,100772.11
2023-07-16T14:54:23.306Z,100769.56
2023-07-16T14:57:30.411Z,100763.94
2023-07-16T15:00:37.899Z,100764.19
2023-07-16T15:03:48.410Z,100769.29
2023-07-16T15:06:58.967Z,100760.00
2023-07-16T15:10:09.000Z,100760.28
2023-07-16T15:13:15.274Z,100762.23
2023-07-16T15:16:21.647Z,100762.80
2023-07-16T15:19:29.001Z,100762.80
2023-07-16T15:22:35.465Z,100766.45
2023-07-16T15:25:41.641Z,100768.70
2023-07-16T15:28:50.000Z,100769.84
2023-07-16T15:31:56.536Z,100773.80
2023-07-16T15:35:02.175Z,100762.22
2023-07-16T15:38:11.923Z,100770.68
2023-07-16T15:41:19.634Z,100768.09
2023-07-16T15:44:28.146Z,100761.90
2023-07-16T15:47:34.765Z,100759.93
2023-07-16T15:50:42.198Z,100755.98
2023-07-16T15:53:50.123Z,100744.99
2023-07-16T15:56:58.152Z,100759.62
2023-07-16T16:00:06.053Z,100760.20
2023-07-16T16:03:12.570Z,100759.09
2023-07-16T16:06:20.225Z,100758.80
2023-07-16T16:09:26.824Z,100756.56
2023-07-16T16:12:33.145Z,100756.55
2023-07-16T16:15:41.453Z,100754.27
2023-07-16T16:18:46.996Z,100755.39
2023-07-16T16:21:53.376Z,100758.75
2023-07-16T16:25:02.229Z,100758.17
2023-07-16T16:28:09.731Z,100755.66
2023-07-16T16:31:15.208Z,100755.92
2023-07-16T16:34:20.626Z,100756.19
2023-07-16T16:37:26.656Z,100751.86
2023-07-16T16:40:32.414Z,100761.35
2023-07-16T16:43:39.690Z,100757.08
2023-07-16T16:46:47.536Z,100749.41
2023-07-16T16:49:52.064Z,100751.25
2023-07-16T16:53:01.134Z,100747.23
2023-07-16T16:56:07.221Z,100751.09
2023-07-16T16:59:12.221Z,100753.81
2023-07-16T17:02:18.773Z,100756.25
2023-07-16T17:05:25.643Z,100753.31
2023-07-16T17:08:33.293Z,100756.88
2023-07-16T17:11:39.003Z,100765.77
2023-07-16T17:14:49.323Z,100767.33
2023-07-16T17:17:58.866Z,100771.14
2023-07-16T17:21:04.607Z,100771.32
2023-07-16T17:24:09.568Z,100781.52
2023-07-16T17:27:17.530Z,100776.03
2023-07-16T17:30:24.304Z,100779.27
2023-07-16T17:33:30.005Z,100774.05
2023-07-16T17:36:35.838Z,100772.77
2023-07-16T17:39:42.441Z,100778.77
2023-07-16T17:42:49.233Z,100790.58
2023-07-16T17:45:55.791Z,100786.45
2023-07-16T17:49:03.671Z,100791.57
2023-07-16T17:52:11.233Z,100789.31
2023-07-16T17:55:18.470Z,100791.86
2023-07-16T17:58:25.466Z,100795.64
2023-07-16T18:01:34.497Z,100802.38
2023-07-16T18:04:41.769Z,100797.04
2023-07-16T18:07:48.344Z,100802.03
2023-07-16T18:10:54.451Z,100803.06
2023-07-16T18:14:01.890Z,100803.25
2023-07-16T18:17:08.738Z,100807.88
2023-07-16T18:20:18.708Z,100803.08
2023-07-16T18:23:24.365Z,100811.37
2023-07-16T18:26:30.831Z,100811.89
2023-07-16T18:29:39.378Z,100816.55
2023-07-16T18:32:45.650Z,100817.02
2023-07-16T18:35:52.016Z,100827.31
2023-07-16T18:38:58.490Z,100825.05
2023-07-16T18:42:05.263Z,100828.30
2023-07-16T18:45:13.879Z,100823.25
2023-07-16T18:48:21.677Z,100822.03
2023-07-16T18:51:28.543Z,100820.59
2023-07-16T18:54:34.023Z,100817.67
2023-07-16T18:57:39.975Z,100813.13
2023-07-16T19:00:46.437Z,100814.16
2023-07-16T19:03:54.386Z,100810.42
2023-07-16T19:07:02.071Z,100816.20
2023-07-16T19:10:09.046Z,100809.09
2023-07-16T19:13:15.002Z,100809.55
2023-07-16T19:16:22.960Z,100810.31
2023-07-16T19:19:28.218Z,100810.83
2023-07-16T19:22:37.188Z,100812.51
2023-07-16T19:25:43.779Z,100812.56
2023-07-16T19:28:49.796Z,100810.97
2023-07-16T19:31:57.545Z,100817.22
2023-07-16T19:35:03.330Z,100814.56
2023-07-16T19:38:10.984Z,100814.19
2023-07-16T19:41:20.809Z,100811.83
2023-07-16T19:44:27.270Z,100809.73
2023-07-16T19:47:33.148Z,100810.11
2023-07-16T19:50:39.789Z,100810.62
2023-07-16T19:53:44.498Z,100809.31
2023-07-16T19:56:50.681Z,100812.36
2023-07-16T19:59:57.190Z,100813.78
2023-07-16T20:02:59.773Z,100811.16
2023-07-16T20:05:53.940Z,100801.47
2023-07-16T20:09:00.720Z,100810.25
2023-07-16T20:12:09.084Z,100808.56
2023-07-16T20:15:15.186Z,100810.80
2023-07-16T20:18:22.660Z,100815.78
2023-07-16T20:21:32.846Z,100813.34
2023-07-16T20:24:39.516Z,100818.47
2023-07-16T20:27:45.680Z,100816.05
2023-07-16T20:30:52.504Z,100816.72
2023-07-16T20:33:59.489Z,100818.77
2023-07-16T20:37:05.402Z,100823.89
2023-07-16T20:40:13.925Z,100830.10
2023-07-16T20:43:23.556Z,100827.01
2023-07-16T20:46:30.431Z,100827.88
2023-07-16T20:49:37.627Z,100827.45
2023-07-16T20:52:44.009Z,100827.28
2023-07-16T20:55:52.832Z,100834.84
2023-07-16T20:59:00.523Z,100832.94
2023-07-16T21:02:07.655Z,100831.13
2023-07-16T21:05:14.380Z,100837.02
2023-07-16T21:08:21.368Z,100838.16
2023-07-16T21:11:26.928Z,100841.88
2023-07-16T21:14:33.804Z,100841.67
2023-07-16T21:17:40.407Z,100839.55
2023-07-16T21:20:47.681Z,100831.88
2023-07-16T21:23:56.705Z,100843.83
2023-07-16T21:27:02.646Z,100841.91
2023-07-16T21:30:09.237Z,100836.80
2023-07-16T21:33:16.332Z,100840.83
2023-07-16T21:36:22.278Z,100842.12
2023-07-16T21:39:28.645Z,100844.67
2023-07-16T21:42:35.425Z,100843.58
2023-07-16T21:45:41.786Z,100845.30
2023-07-16T21:48:48.277Z,100844.65
2023-07-16T21:51:55.191Z,100839.84
2023-07-16T21:55:03.064Z,100846.16
2023-07-16T21:58:07.992Z,100842.42
2023-07-16T22:01:15.714Z,100840.60
2023-07-16T22:04:21.551Z,100844.52
2023-07-16T22:07:28.938Z,100843.87
2023-07-16T22:10:36.522Z,100848.35
2023-07-16T22:13:42.581Z,100845.88
2023-07-16T22:16:49.729Z,100848.41
2023-07-16T22:19:50.912Z,100843.47
2023-07-16T22:22:57.669Z,100851.89
2023-07-16T22:26:04.481Z,100844.94
2023-07-16T22:29:12.992Z,100846.41
2023-07-16T22:32:19.620Z,100846.30
2023-07-16T22:35:28.073Z,100844.99
2023-07-16T22:38:32.930Z,100847.20
2023-07-16T22:41:39.291Z,100835.18
2023-07-16T22:44:45.665Z,100841.13
2023-07-16T22:47:53.183Z,100841.23
2023-07-16T22:50:59.732Z,100843.03
2023-07-16T22:54:07.729Z,100844.80
2023-07-16T22:57:12.671Z,100841.06
2023-07-16T23:00:19.549Z,100848.53
2023-07-16T23:03:26.032Z,100841.82
2023-07-16T23:06:33.014Z,100840.30
2023-07-16T23:09:39.906Z,100839.85
2023-07-16T23:12:46.243Z,100842.30
2023-07-16T23:15:53.925Z,100843.03
2023-07-16T23:19:01.053Z,100840.02
2023-07-16T23:22:07.603Z,100849.08
2023-07-16T23:25:14.988Z,100845.96
2023-07-16T23:28:21.152Z,100842.02
2023-07-16T23:31:27.133Z,100842.57
2023-07-16T23:34:33.556Z,100851.18
2023-07-16T23:37:39.872Z,100835.66
2023-07-16T23:40:46.755Z,100841.81
2023-07-16T23:43:54.535Z,100838.73
2023-07-16T23:47:01.423Z,100838.08
2023-07-16T23:50:08.502Z,100839.56
2023-07-16T23:53:14.734Z,100842.73
2023-07-16T23:56:22.488Z,100835.06
2023-07-16T23:59:29.464Z,100838.96
